Time;durP1;ratioP1;P1;durP2;ratioP2;P2;SDS_P1;SDS_P2;PMS_P1;PMS_P2;Temp;Humidity;BMP_temperature;BMP_pressure;BME280_temperature;BME280_humidity;BME280_pressure;Samples;Min_cycle;Max_cycle;Signal;HPM_P1;HPM_P2
2023/10/30 00:01:32;;;;;;;7.53;1.45;;;10.70;99.90;;;;;;5071174;28;20134;-71
2023/10/30 00:03:58;;;;;;;7.57;1.20;;;10.70;99.90;;;;;;5071586;28;20136;-72
2023/10/30 00:06:24;;;;;;;7.10;1.30;;;10.70;99.90;;;;;;5070590;28;20040;-72
2023/10/30 00:08:49;;;;;;;4.68;1.27;;;10.60;99.90;;;;;;5071236;28;20075;-72
2023/10/30 00:11:15;;;;;;;7.22;1.55;;;10.70;99.90;;;;;;5072064;28;20040;-72
2023/10/30 00:13:43;;;;;;;8.43;1.85;;;10.70;99.90;;;;;;5071283;28;20040;-72
2023/10/30 00:16:10;;;;;;;4.22;1.40;;;10.90;99.90;;;;;;5072257;28;20090;-72
2023/10/30 00:18:38;;;;;;;7.70;1.58;;;11.10;99.90;;;;;;5069958;28;20079;-72
2023/10/30 00:21:05;;;;;;;5.38;1.45;;;11.10;99.90;;;;;;5071681;28;20369;-72
2023/10/30 00:23:30;;;;;;;7.40;1.88;;;10.70;99.90;;;;;;5071087;28;20049;-72
2023/10/30 00:25:56;;;;;;;6.05;1.15;;;10.80;99.90;;;;;;5070256;28;20542;-72
2023/10/30 00:28:22;;;;;;;6.43;1.65;;;10.80;99.90;;;;;;5072557;28;20052;-72
2023/10/30 00:30:48;;;;;;;7.78;1.60;;;10.90;99.90;;;;;;5072247;28;20040;-72
2023/10/30 00:33:13;;;;;;;8.77;1.73;;;11.00;99.90;;;;;;5070668;28;20037;-72
2023/10/30 00:35:39;;;;;;;6.32;1.10;;;11.00;99.90;;;;;;5070512;28;20499;-72
2023/10/30 00:38:04;;;;;;;6.38;1.80;;;10.70;99.90;;;;;;5072373;28;20071;-71
2023/10/30 00:40:30;;;;;;;7.65;1.52;;;10.60;99.90;;;;;;5070154;28;20476;-72
2023/10/30 00:42:56;;;;;;;4.82;1.13;;;10.70;99.90;;;;;;5071113;28;20048;-72
2023/10/30 00:45:22;;;;;;;5.97;1.25;;;11.00;99.90;;;;;;5072842;28;20415;-71
2023/10/30 00:47:47;;;;;;;7.50;1.50;;;10.90;99.90;;;;;;5075047;28;20044;-72
2023/10/30 00:50:13;;;;;;;7.22;1.40;;;10.70;99.90;;;;;;5074942;28;20047;-72
2023/10/30 00:52:39;;;;;;;7.22;1.65;;;10.90;99.90;;;;;;5075761;28;20206;-72
2023/10/30 00:55:04;;;;;;;5.32;1.55;;;10.70;99.90;;;;;;5074039;28;20055;-71
2023/10/30 00:57:30;;;;;;;5.55;1.67;;;10.60;99.90;;;;;;5074304;28;20041;-72
2023/10/30 00:59:56;;;;;;;5.60;1.33;;;10.50;99.90;;;;;;5074765;28;20055;-72
2023/10/30 01:02:21;;;;;;;5.57;1.27;;;10.50;99.90;;;;;;5073710;28;20517;-72
2023/10/30 01:04:47;;;;;;;9.35;1.42;;;10.50;99.90;;;;;;5074352;28;20049;-72
2023/10/30 01:07:15;;;;;;;6.07;1.30;;;10.80;99.90;;;;;;5074108;28;20048;-71
2023/10/30 01:09:41;;;;;;;4.50;1.25;;;10.80;99.90;;;;;;5073857;28;20115;-71
2023/10/30 01:12:07;;;;;;;4.57;1.00;;;10.70;99.90;;;;;;5074290;28;20041;-72
2023/10/30 01:14:33;;;;;;;3.90;1.20;;;10.60;99.90;;;;;;5084667;28;20373;-72
2023/10/30 01:16:58;;;;;;;4.22;0.95;;;10.60;99.90;;;;;;5074395;28;20117;-72
2023/10/30 01:19:24;;;;;;;7.03;0.80;;;10.60;99.90;;;;;;5074474;28;20048;-72
2023/10/30 01:21:49;;;;;;;10.48;1.20;;;10.50;99.90;;;;;;5073492;28;20053;-72
2023/10/30 01:24:15;;;;;;;4.95;0.80;;;10.90;99.90;;;;;;5074031;28;20044;-72
2023/10/30 01:26:41;;;;;;;6.53;1.20;;;11.10;99.90;;;;;;5074781;28;20475;-72
2023/10/30 01:29:07;;;;;;;5.57;1.10;;;10.70;99.90;;;;;;5075060;28;20079;-71
2023/10/30 01:31:32;;;;;;;6.03;1.00;;;10.80;99.90;;;;;;5075137;28;20083;-71
2023/10/30 01:33:58;;;;;;;9.18;1.20;;;10.60;99.90;;;;;;5075188;28;20495;-71
2023/10/30 01:36:25;;;;;;;7.43;1.02;;;10.50;99.90;;;;;;5073373;28;20060;-72
2023/10/30 01:38:52;;;;;;;7.57;1.20;;;11.00;99.90;;;;;;5074946;28;20502;-72
2023/10/30 01:41:17;;;;;;;5.88;1.40;;;10.60;99.90;;;;;;5073469;28;20044;-72
2023/10/30 01:43:43;;;;;;;5.03;1.10;;;10.70;99.90;;;;;;5072696;28;20052;-71
2023/10/30 01:46:08;;;;;;;6.90;1.30;;;10.70;99.90;;;;;;5073730;28;20040;-71
2023/10/30 01:48:35;;;;;;;6.35;1.05;;;11.10;99.90;;;;;;5073208;28;20037;-72
2023/10/30 01:51:02;;;;;;;8.13;1.30;;;10.40;99.90;;;;;;5073070;28;20068;-72
2023/10/30 01:53:29;;;;;;;6.40;1.25;;;10.40;99.90;;;;;;5073803;28;20056;-72
2023/10/30 01:55:56;;;;;;;9.57;1.35;;;10.80;99.90;;;;;;5073232;28;20040;-71
2023/10/30 01:58:25;;;;;;;7.70;1.20;;;10.40;99.90;;;;;;5073150;28;20518;-72
2023/10/30 02:00:53;;;;;;;6.53;1.73;;;10.30;99.90;;;;;;5073656;28;20048;-71
2023/10/30 02:03:19;;;;;;;8.90;2.15;;;10.30;99.90;;;;;;5073053;28;20052;-72
2023/10/30 02:05:45;;;;;;;3.65;1.15;;;10.40;99.90;;;;;;5072502;28;20044;-71
2023/10/30 02:08:12;;;;;;;8.23;1.52;;;10.30;99.90;;;;;;5074675;28;20040;-71
2023/10/30 02:10:38;;;;;;;4.38;1.38;;;10.30;99.90;;;;;;5072364;28;20061;-72
2023/10/30 02:13:07;;;;;;;5.75;1.10;;;10.50;99.90;;;;;;5073073;28;20045;-71
2023/10/30 02:15:33;;;;;;;7.35;1.17;;;10.40;99.90;;;;;;5073127;28;20044;-72
2023/10/30 02:17:59;;;;;;;7.07;1.35;;;10.30;99.90;;;;;;5072677;28;20817;-71
2023/10/30 02:20:25;;;;;;;7.57;1.30;;;10.30;99.90;;;;;;5073383;28;20040;-71
2023/10/30 02:22:51;;;;;;;6.10;1.60;;;10.30;99.90;;;;;;5072318;28;20076;-72
2023/10/30 02:25:24;;;;;;;4.97;1.30;;;10.30;99.90;;;;;;5072379;28;20075;-71
2023/10/30 02:27:51;;;;;;;6.50;1.13;;;10.20;99.90;;;;;;5073964;28;20044;-72
2023/10/30 02:30:16;;;;;;;3.70;1.00;;;11.00;99.90;;;;;;5073008;28;20044;-71
2023/10/30 02:32:44;;;;;;;5.93;1.58;;;10.40;99.90;;;;;;5071560;28;20415;-71
2023/10/30 02:35:19;;;;;;;4.25;0.93;;;10.20;99.90;;;;;;5072635;28;20118;-71
2023/10/30 02:37:45;;;;;;;7.13;1.40;;;10.10;99.90;;;;;;5072519;28;20059;-71
2023/10/30 02:40:12;;;;;;;5.93;1.05;;;10.00;99.90;;;;;;5071970;28;20040;-71
2023/10/30 02:42:38;;;;;;;4.72;1.13;;;9.90;99.90;;;;;;5072016;28;20166;-72
2023/10/30 02:45:08;;;;;;;5.93;1.23;;;10.30;99.90;;;;;;5072669;28;20053;-71
2023/10/30 02:47:34;;;;;;;3.55;0.95;;;9.90;99.90;;;;;;5072664;28;20388;-71
2023/10/30 02:50:01;;;;;;;3.45;1.00;;;9.80;99.90;;;;;;5073564;28;20048;-71
2023/10/30 02:52:28;;;;;;;6.10;1.40;;;9.80;99.90;;;;;;5072329;28;20059;-72
2023/10/30 02:54:54;;;;;;;6.00;1.55;;;9.80;99.90;;;;;;5072466;28;20044;-71
2023/10/30 02:57:19;;;;;;;5.57;1.08;;;10.00;99.90;;;;;;5072794;28;20144;-72
2023/10/30 02:59:45;;;;;;;4.60;1.13;;;9.80;99.90;;;;;;5072437;28;20036;-71
2023/10/30 03:02:10;;;;;;;4.63;1.27;;;9.70;99.90;;;;;;5071483;28;20535;-71
2023/10/30 03:04:36;;;;;;;4.38;1.30;;;9.60;99.90;;;;;;5072787;28;20048;-71
2023/10/30 03:07:02;;;;;;;5.35;1.52;;;9.60;99.90;;;;;;5070852;28;20050;-71
2023/10/30 03:09:31;;;;;;;5.68;1.30;;;9.70;99.90;;;;;;5071984;28;20127;-70
2023/10/30 03:12:00;;;;;;;5.38;1.75;;;9.60;99.90;;;;;;5071704;28;20075;-70
2023/10/30 03:14:25;;;;;;;5.95;1.67;;;9.60;99.90;;;;;;5070819;28;20045;-70
2023/10/30 03:16:51;;;;;;;5.75;1.80;;;9.80;99.90;;;;;;5071827;28;20063;-71
2023/10/30 03:19:18;;;;;;;3.78;1.65;;;9.90;99.90;;;;;;5071879;28;20040;-71
2023/10/30 03:21:43;;;;;;;6.95;1.90;;;10.10;99.90;;;;;;5070872;28;20079;-71
2023/10/30 03:24:09;;;;;;;4.90;1.88;;;10.00;99.90;;;;;;5073151;28;20080;-71
2023/10/30 03:26:35;;;;;;;7.25;2.17;;;9.90;99.90;;;;;;5071575;28;20440;-71
2023/10/30 03:29:01;;;;;;;6.55;1.70;;;10.30;99.90;;;;;;5071037;28;20049;-71
2023/10/30 03:31:30;;;;;;;11.38;2.20;;;9.90;99.90;;;;;;5071375;28;20449;-71
2023/10/30 03:33:59;;;;;;;6.25;1.95;;;9.90;99.90;;;;;;5071366;28;20049;-71
2023/10/30 03:36:25;;;;;;;5.57;1.80;;;9.90;99.90;;;;;;5071054;28;20041;-71
2023/10/30 03:38:51;;;;;;;7.38;1.92;;;10.00;99.90;;;;;;5071311;28;20063;-71
2023/10/30 03:41:17;;;;;;;5.13;1.98;;;9.80;99.90;;;;;;5071843;28;20048;-71
2023/10/30 03:43:43;;;;;;;5.88;2.25;;;9.70;99.90;;;;;;5070449;28;20137;-71
2023/10/30 03:46:09;;;;;;;9.90;2.10;;;9.80;99.90;;;;;;5071776;28;20498;-71
2023/10/30 03:48:35;;;;;;;7.32;2.60;;;10.10;99.90;;;;;;5071190;28;20105;-71
2023/10/30 03:51:02;;;;;;;5.97;2.13;;;9.80;99.90;;;;;;5070648;28;20067;-71
2023/10/30 03:53:29;;;;;;;12.75;2.20;;;9.90;99.90;;;;;;5071029;28;20052;-71
2023/10/30 03:55:54;;;;;;;6.40;2.20;;;10.10;99.90;;;;;;5070664;28;20094;-71
2023/10/30 03:58:20;;;;;;;9.30;2.55;;;9.90;99.90;;;;;;5070945;28;20041;-71
2023/10/30 04:00:46;;;;;;;6.57;1.95;;;10.00;99.90;;;;;;5071184;28;20468;-71
2023/10/30 04:03:11;;;;;;;6.53;1.90;;;10.00;99.90;;;;;;5071584;28;20060;-71
2023/10/30 04:05:38;;;;;;;5.85;1.80;;;10.20;99.90;;;;;;5070693;28;20382;-71
2023/10/30 04:08:04;;;;;;;8.63;2.05;;;10.20;99.90;;;;;;5071258;28;20119;-71
2023/10/30 04:10:29;;;;;;;9.88;2.50;;;10.20;99.90;;;;;;5087207;28;20838;-71
2023/10/30 04:12:55;;;;;;;5.93;1.85;;;10.10;99.90;;;;;;5071174;28;20040;-71
2023/10/30 04:15:21;;;;;;;7.50;1.80;;;10.20;99.90;;;;;;5071060;28;20041;-71
2023/10/30 04:17:46;;;;;;;8.43;2.42;;;10.20;99.90;;;;;;5069868;28;20048;-71
2023/10/30 04:20:12;;;;;;;6.45;1.85;;;10.20;99.90;;;;;;5074697;28;20052;-71
2023/10/30 04:22:38;;;;;;;8.18;2.10;;;10.60;99.90;;;;;;5074919;28;20556;-71
2023/10/30 04:25:08;;;;;;;10.77;2.08;;;10.80;99.90;;;;;;5074414;28;20044;-71
2023/10/30 04:27:34;;;;;;;10.30;2.40;;;10.30;99.90;;;;;;5074807;28;20051;-71
2023/10/30 04:30:00;;;;;;;10.90;2.70;;;10.70;99.90;;;;;;5075236;28;20036;-71
2023/10/30 04:32:26;;;;;;;7.47;2.00;;;10.20;99.90;;;;;;5074694;28;20507;-71
2023/10/30 04:34:54;;;;;;;7.30;1.90;;;10.10;99.90;;;;;;5074693;28;20037;-71
2023/10/30 04:37:20;;;;;;;4.63;1.63;;;10.50;99.90;;;;;;5075437;28;20105;-71
2023/10/30 04:39:46;;;;;;;9.38;2.05;;;10.10;99.90;;;;;;5075122;28;20549;-71
2023/10/30 04:42:12;;;;;;;12.90;2.13;;;10.20;99.90;;;;;;5074914;28;20048;-71
2023/10/30 04:44:38;;;;;;;11.75;1.98;;;10.40;99.90;;;;;;5074344;28;20102;-71
2023/10/30 04:47:04;;;;;;;10.80;2.20;;;10.10;99.90;;;;;;5073959;28;20040;-71
2023/10/30 04:49:34;;;;;;;8.52;2.00;;;10.10;99.90;;;;;;5075630;28;20448;-71
2023/10/30 04:52:00;;;;;;;8.82;2.33;;;10.10;99.90;;;;;;5075169;28;20040;-71
2023/10/30 04:54:26;;;;;;;9.25;2.25;;;10.10;99.90;;;;;;5073936;28;20055;-71
2023/10/30 04:56:51;;;;;;;9.23;2.00;;;10.20;99.90;;;;;;5074209;28;20048;-71
2023/10/30 04:59:17;;;;;;;6.95;2.15;;;10.10;99.90;;;;;;5074985;28;20051;-71
2023/10/30 05:01:42;;;;;;;5.50;1.85;;;10.10;99.90;;;;;;5073205;28;20491;-71
2023/10/30 05:04:08;;;;;;;7.88;2.40;;;10.10;99.90;;;;;;5073958;28;20091;-71
2023/10/30 05:06:34;;;;;;;8.63;2.00;;;10.50;99.90;;;;;;5074644;28;20048;-71
2023/10/30 05:08:59;;;;;;;8.32;1.98;;;10.10;99.90;;;;;;5075488;28;20043;-71
2023/10/30 05:11:25;;;;;;;7.88;1.80;;;10.50;99.90;;;;;;5073856;28;20041;-70
2023/10/30 05:13:50;;;;;;;3.83;1.50;;;9.90;99.90;;;;;;5074539;28;20517;-70
2023/10/30 05:16:16;;;;;;;11.50;2.40;;;9.90;99.90;;;;;;5074533;28;20040;-71
2023/10/30 05:18:42;;;;;;;8.05;1.92;;;10.10;99.90;;;;;;5073838;28;20480;-70
2023/10/30 05:21:07;;;;;;;8.77;2.03;;;9.80;99.90;;;;;;5072803;28;20139;-71
2023/10/30 05:23:33;;;;;;;12.05;2.63;;;10.30;99.90;;;;;;5073588;28;20043;-71
2023/10/30 05:25:59;;;;;;;9.95;2.30;;;9.90;99.90;;;;;;5073859;28;20044;-71
2023/10/30 05:28:25;;;;;;;9.32;2.03;;;9.90;99.90;;;;;;5072969;28;20496;-71
2023/10/30 05:30:50;;;;;;;11.20;1.83;;;9.80;99.90;;;;;;5072850;28;20048;-71
2023/10/30 05:33:16;;;;;;;12.60;2.25;;;9.80;99.90;;;;;;5073878;28;20051;-70
2023/10/30 05:35:42;;;;;;;4.38;1.60;;;10.10;99.90;;;;;;5072412;28;20044;-70
2023/10/30 05:38:10;;;;;;;8.13;2.10;;;9.80;99.90;;;;;;5074833;28;20052;-70
2023/10/30 05:40:36;;;;;;;6.95;1.75;;;9.70;99.90;;;;;;5073536;28;20041;-72
2023/10/30 05:43:01;;;;;;;10.68;2.05;;;10.00;99.90;;;;;;5073066;28;20472;-70
2023/10/30 05:45:36;;;;;;;9.20;2.00;;;9.80;99.90;;;;;;5073225;28;20040;-70
2023/10/30 05:48:02;;;;;;;7.70;1.90;;;9.70;99.90;;;;;;5073969;28;20060;-70
2023/10/30 05:50:28;;;;;;;10.07;2.17;;;9.80;99.90;;;;;;5072060;28;20045;-70
2023/10/30 05:52:53;;;;;;;11.25;2.08;;;9.80;99.90;;;;;;5072850;28;20079;-69
2023/10/30 05:55:19;;;;;;;8.70;2.00;;;9.70;99.90;;;;;;5073535;28;20076;-69
2023/10/30 05:57:45;;;;;;;6.00;1.70;;;9.80;99.90;;;;;;5072487;28;20115;-73
2023/10/30 06:00:12;;;;;;;13.50;2.20;;;10.10;99.90;;;;;;5073395;28;20048;-72
2023/10/30 06:02:37;;;;;;;11.88;2.53;;;9.70;99.90;;;;;;5072986;28;20185;-70
2023/10/30 06:05:06;;;;;;;12.82;2.08;;;9.60;99.90;;;;;;5072621;28;20480;-75
2023/10/30 06:07:32;;;;;;;6.90;1.52;;;9.60;99.90;;;;;;5072195;28;20048;-78
2023/10/30 06:09:58;;;;;;;8.43;1.88;;;9.50;99.90;;;;;;5072047;28;20553;-73
2023/10/30 06:12:23;;;;;;;10.07;2.10;;;9.50;99.90;;;;;;5072746;28;20041;-74
2023/10/30 06:14:49;;;;;;;7.50;2.00;;;9.60;99.90;;;;;;5072735;28;20440;-71
2023/10/30 06:17:15;;;;;;;14.07;1.98;;;9.40;99.90;;;;;;5073191;28;20068;-71
2023/10/30 06:19:40;;;;;;;13.40;1.95;;;9.40;99.90;;;;;;5072208;28;20072;-69
2023/10/30 06:22:06;;;;;;;9.25;2.53;;;9.60;99.90;;;;;;5072708;28;20040;-68
2023/10/30 06:24:32;;;;;;;9.20;2.38;;;9.40;99.90;;;;;;5070413;28;20059;-68
2023/10/30 06:26:58;;;;;;;7.65;1.70;;;9.40;99.90;;;;;;5089248;28;20040;-73
2023/10/30 06:29:24;;;;;;;7.03;2.05;;;9.60;99.90;;;;;;5072283;28;20063;-69
2023/10/30 06:31:49;;;;;;;9.80;1.90;;;9.50;99.90;;;;;;5071404;28;20044;-68
2023/10/30 06:34:15;;;;;;;9.98;2.10;;;9.40;99.90;;;;;;5071931;28;20041;-69
2023/10/30 06:36:40;;;;;;;8.38;2.30;;;9.40;99.90;;;;;;5072020;28;20037;-70
2023/10/30 06:39:09;;;;;;;13.90;2.83;;;9.40;99.90;;;;;;5070741;28;20067;-70
2023/10/30 06:41:35;;;;;;;6.35;1.85;;;9.50;99.90;;;;;;5071351;28;20059;-69
2023/10/30 06:44:00;;;;;;;11.23;2.35;;;9.60;99.90;;;;;;5072332;28;20071;-71
2023/10/30 06:46:26;;;;;;;8.85;2.25;;;10.00;99.90;;;;;;5069221;28;20041;-72
2023/10/30 06:48:51;;;;;;;9.52;2.33;;;9.50;99.90;;;;;;5071622;28;20395;-69
2023/10/30 06:51:17;;;;;;;9.65;2.47;;;9.60;99.90;;;;;;5071776;28;20037;-69
2023/10/30 06:53:42;;;;;;;9.50;2.22;;;9.90;99.90;;;;;;5070157;28;20480;-69
2023/10/30 06:56:09;;;;;;;9.43;2.13;;;9.70;99.90;;;;;;5072282;28;20041;-69
2023/10/30 06:58:34;;;;;;;9.55;2.33;;;9.70;99.90;;;;;;5070593;28;20045;-69
2023/10/30 07:01:04;;;;;;;9.00;2.50;;;9.70;99.90;;;;;;5070318;28;20644;-69
2023/10/30 07:03:30;;;;;;;6.80;2.20;;;9.70;99.90;;;;;;5070529;28;20056;-70
2023/10/30 07:05:56;;;;;;;9.48;2.42;;;9.70;99.90;;;;;;5069309;28;20119;-69
2023/10/30 07:08:22;;;;;;;12.07;2.20;;;9.80;99.90;;;;;;5068983;28;20049;-69
2023/10/30 07:10:47;;;;;;;8.20;2.03;;;9.90;99.90;;;;;;5069370;28;20051;-69
2023/10/30 07:13:13;;;;;;;9.85;2.13;;;10.00;99.90;;;;;;5069159;28;20032;-70
2023/10/30 07:15:39;;;;;;;10.35;2.13;;;10.10;99.90;;;;;;5069261;28;20040;-70
2023/10/30 07:18:04;;;;;;;13.60;2.28;;;10.20;99.90;;;;;;5069727;28;20385;-69
2023/10/30 07:20:30;;;;;;;9.35;1.83;;;10.30;99.90;;;;;;5070026;28;20052;-70
2023/10/30 07:22:56;;;;;;;8.93;2.00;;;10.60;99.90;;;;;;5071336;28;20037;-69
2023/10/30 07:25:21;;;;;;;9.48;2.05;;;10.30;99.90;;;;;;5087616;28;20056;-68
2023/10/30 07:27:47;;;;;;;11.00;2.08;;;10.30;99.90;;;;;;5070299;28;20045;-68
2023/10/30 07:30:13;;;;;;;9.05;2.00;;;10.30;99.90;;;;;;5071348;28;20050;-68
2023/10/30 07:32:39;;;;;;;7.35;2.05;;;10.40;99.90;;;;;;5070837;28;20044;-68
2023/10/30 07:35:06;;;;;;;7.90;2.03;;;10.50;99.90;;;;;;5070540;28;20391;-68
2023/10/30 07:37:33;;;;;;;8.60;2.97;;;10.50;99.90;;;;;;5070608;28;20044;-68
2023/10/30 07:39:59;;;;;;;9.35;2.22;;;11.00;99.90;;;;;;5070633;28;20049;-68
2023/10/30 07:42:24;;;;;;;10.32;2.65;;;10.90;99.90;;;;;;5070079;28;20047;-68
2023/10/30 07:44:50;;;;;;;6.22;1.85;;;10.70;99.90;;;;;;5070594;28;20940;-69
2023/10/30 07:47:15;;;;;;;12.05;2.30;;;10.60;99.90;;;;;;5071163;28;20048;-69
2023/10/30 07:49:41;;;;;;;10.63;2.30;;;11.20;99.90;;;;;;5069801;28;20040;-69
2023/10/30 07:52:06;;;;;;;8.07;2.17;;;11.20;99.90;;;;;;5070879;28;20041;-69
2023/10/30 07:54:32;;;;;;;12.25;2.38;;;11.20;99.90;;;;;;5071401;28;20120;-69
2023/10/30 07:56:58;;;;;;;12.05;2.13;;;11.30;99.90;;;;;;5070114;28;20093;-70
2023/10/30 07:59:23;;;;;;;11.15;1.90;;;11.70;99.90;;;;;;5071030;28;20051;-70
2023/10/30 08:01:50;;;;;;;9.13;2.38;;;12.30;99.90;;;;;;5070282;28;20503;-70
2023/10/30 08:04:17;;;;;;;14.57;2.10;;;12.70;99.90;;;;;;5070088;28;20071;-70
2023/10/30 08:06:42;;;;;;;10.98;2.22;;;12.90;99.90;;;;;;5072209;28;20082;-70
2023/10/30 08:09:08;;;;;;;6.13;1.63;;;13.20;99.90;;;;;;5071387;28;20400;-71
2023/10/30 08:11:35;;;;;;;11.10;2.40;;;13.20;99.90;;;;;;5070813;28;20086;-71
2023/10/30 08:14:00;;;;;;;10.80;2.03;;;13.50;99.90;;;;;;5071512;28;20049;-71
2023/10/30 08:16:26;;;;;;;9.43;1.92;;;14.30;99.90;;;;;;5070621;28;20040;-72
2023/10/30 08:18:52;;;;;;;7.45;2.17;;;14.80;99.90;;;;;;5070437;28;20048;-72
2023/10/30 08:21:17;;;;;;;9.65;2.28;;;15.40;99.90;;;;;;5071271;28;20372;-72
2023/10/30 08:23:43;;;;;;;6.65;2.00;;;15.70;99.90;;;;;;5069652;28;20044;-72
2023/10/30 08:26:09;;;;;;;7.40;2.47;;;15.80;99.90;;;;;;5070923;28;20037;-71
2023/10/30 08:28:35;;;;;;;10.02;1.50;;;15.50;99.90;;;;;;5070594;28;20055;-72
2023/10/30 08:31:01;;;;;;;6.38;1.75;;;15.10;99.90;;;;;;5069419;28;20120;-72
2023/10/30 08:33:27;;;;;;;10.00;2.10;;;14.70;99.90;;;;;;5070744;28;20128;-74
2023/10/30 08:35:53;;;;;;;10.35;1.85;;;15.00;99.90;;;;;;5070181;28;20512;-72
2023/10/30 08:38:18;;;;;;;8.60;1.58;;;15.50;99.90;;;;;;5069916;28;20131;-72
2023/10/30 08:40:44;;;;;;;8.60;2.22;;;15.80;99.90;;;;;;5070397;28;20124;-72
2023/10/30 08:43:09;;;;;;;9.98;2.35;;;15.70;99.90;;;;;;5070830;28;20388;-72
2023/10/30 08:45:35;;;;;;;6.78;2.22;;;15.40;99.90;;;;;;5069962;28;20080;-74
2023/10/30 08:48:01;;;;;;;8.95;2.33;;;15.20;99.90;;;;;;5069993;28;20039;-72
2023/10/30 08:50:26;;;;;;;9.75;2.30;;;15.10;99.90;;;;;;5069339;28;20052;-71
2023/10/30 08:52:52;;;;;;;9.80;2.10;;;15.10;99.90;;;;;;5069194;28;20037;-70
2023/10/30 08:55:18;;;;;;;7.72;2.05;;;15.10;99.90;;;;;;5071162;28;20123;-71
2023/10/30 08:57:43;;;;;;;6.00;1.90;;;15.00;99.90;;;;;;5070190;28;20151;-71
2023/10/30 09:00:10;;;;;;;10.82;2.03;;;15.00;99.90;;;;;;5069498;28;20039;-73
2023/10/30 09:02:39;;;;;;;5.72;1.67;;;15.60;99.90;;;;;;5069648;28;20514;-72
2023/10/30 09:05:07;;;;;;;6.95;1.77;;;16.10;99.90;;;;;;5070604;28;20193;-72
2023/10/30 09:07:33;;;;;;;8.18;2.15;;;16.50;99.90;;;;;;5070083;28;20047;-74
2023/10/30 09:09:58;;;;;;;7.22;2.25;;;17.10;99.90;;;;;;5073555;28;20040;-74
2023/10/30 09:12:24;;;;;;;9.25;2.10;;;18.00;99.90;;;;;;5073918;28;20045;-73
2023/10/30 09:14:50;;;;;;;8.02;1.98;;;18.50;99.90;;;;;;5073045;28;20048;-74
2023/10/30 09:17:15;;;;;;;7.80;2.17;;;18.60;99.90;;;;;;5075481;28;20435;-75
2023/10/30 09:19:41;;;;;;;7.35;2.05;;;18.30;99.90;;;;;;5073138;28;20468;-72
2023/10/30 09:22:07;;;;;;;9.80;2.53;;;17.90;99.90;;;;;;5074570;28;20123;-71
2023/10/30 09:24:32;;;;;;;9.90;2.83;;;17.00;99.90;;;;;;5073954;28;20048;-72
2023/10/30 09:26:58;;;;;;;9.38;2.30;;;16.20;99.90;;;;;;5073782;28;20052;-71
2023/10/30 09:29:24;;;;;;;8.43;2.22;;;15.70;99.90;;;;;;5073244;28;20475;-71
2023/10/30 09:31:50;;;;;;;6.75;2.10;;;15.60;99.90;;;;;;5073174;28;20090;-71
2023/10/30 09:34:16;;;;;;;11.07;2.30;;;15.50;99.90;;;;;;5072523;28;20040;-71
2023/10/30 09:36:42;;;;;;;8.20;2.10;;;15.40;99.90;;;;;;5073240;28;20040;-71
2023/10/30 09:39:08;;;;;;;10.02;2.13;;;15.60;99.90;;;;;;5073423;28;20484;-72
2023/10/30 09:41:41;;;;;;;9.18;2.30;;;16.30;99.90;;;;;;5068153;28;20043;-72
2023/10/30 09:44:09;;;;;;;5.85;1.90;;;17.20;99.90;;;;;;5074358;28;20048;-71
2023/10/30 09:46:38;;;;;;;9.15;2.22;;;18.30;99.90;;;;;;5072739;28;20047;-71
2023/10/30 09:49:05;;;;;;;7.57;2.25;;;19.10;99.90;;;;;;5072829;28;20039;-71
2023/10/30 09:51:32;;;;;;;7.10;2.03;;;19.00;99.90;;;;;;5073235;28;20094;-71
2023/10/30 09:53:59;;;;;;;6.93;1.77;;;18.90;99.90;;;;;;5073506;28;20045;-71
2023/10/30 09:56:26;;;;;;;13.15;2.28;;;19.20;99.90;;;;;;5072818;28;20082;-71
2023/10/30 09:58:52;;;;;;;12.75;2.40;;;19.40;99.90;;;;;;5071854;28;20041;-71
2023/10/30 10:01:21;;;;;;;10.55;1.95;;;19.90;99.90;;;;;;5073020;28;20057;-71
2023/10/30 10:03:47;;;;;;;10.02;2.70;;;20.70;99.90;;;;;;5071418;28;20052;-71
2023/10/30 10:06:16;;;;;;;9.45;2.45;;;21.00;99.90;;;;;;5073195;28;20048;-71
2023/10/30 10:08:43;;;;;;;7.35;2.15;;;20.50;99.90;;;;;;5073643;28;20051;-70
2023/10/30 10:11:09;;;;;;;9.70;2.42;;;20.10;99.90;;;;;;5072206;28;20392;-70
2023/10/30 10:13:37;;;;;;;8.77;3.28;;;19.90;99.90;;;;;;5072583;28;20047;-70
2023/10/30 10:16:03;;;;;;;9.15;2.38;;;19.60;99.90;;;;;;5072151;28;20071;-70
2023/10/30 10:18:34;;;;;;;8.52;2.70;;;19.40;99.90;;;;;;5074236;28;20032;-70
2023/10/30 10:21:00;;;;;;;11.93;2.47;;;19.60;99.90;;;;;;5074605;28;20040;-70
2023/10/30 10:23:32;;;;;;;11.00;3.00;;;20.10;99.90;;;;;;5073770;28;20087;-71
2023/10/30 10:26:00;;;;;;;9.25;2.22;;;20.10;99.90;;;;;;5073290;28;20072;-71
2023/10/30 10:28:26;;;;;;;7.43;1.75;;;19.80;99.90;;;;;;5073245;28;20129;-70
2023/10/30 10:30:53;;;;;;;10.07;2.33;;;19.80;99.90;;;;;;5073463;28;20040;-71
2023/10/30 10:33:24;;;;;;;9.13;2.30;;;18.70;99.90;;;;;;5073017;28;20051;-70
2023/10/30 10:35:54;;;;;;;7.57;2.10;;;17.90;99.90;;;;;;5072808;28;20098;-70
2023/10/30 10:38:21;;;;;;;7.95;2.22;;;17.20;99.90;;;;;;5072472;28;20052;-72
2023/10/30 10:40:49;;;;;;;9.00;1.90;;;16.70;99.90;;;;;;5072844;28;20044;-70
2023/10/30 10:43:18;;;;;;;12.18;2.20;;;16.40;99.90;;;;;;5072918;28;20124;-71
2023/10/30 10:45:46;;;;;;;10.48;2.25;;;16.40;99.90;;;;;;5073012;28;20048;-70
2023/10/30 10:48:12;;;;;;;9.68;2.25;;;16.00;99.90;;;;;;5072960;28;20487;-70
2023/10/30 10:50:38;;;;;;;10.70;3.25;;;16.40;99.90;;;;;;5072462;28;20488;-71
2023/10/30 10:53:04;;;;;;;12.07;2.20;;;17.50;99.90;;;;;;5071995;28;20048;-71
2023/10/30 10:55:43;;;;;;;14.88;2.67;;;18.60;99.90;;;;;;5072283;28;20068;-70
2023/10/30 10:58:17;;;;;;;10.23;2.80;;;19.10;99.90;;;;;;5071765;28;20146;-70
2023/10/30 11:00:51;;;;;;;8.40;2.05;;;19.20;99.90;;;;;;5072115;28;20551;-70
2023/10/30 11:03:21;;;;;;;7.20;2.30;;;19.60;99.90;;;;;;5072076;28;20064;-70
2023/10/30 11:05:52;;;;;;;10.38;2.65;;;19.80;99.90;;;;;;5071145;28;20503;-70
2023/10/30 11:08:25;;;;;;;8.60;2.30;;;20.00;99.90;;;;;;5073482;28;20047;-69
2023/10/30 11:11:03;;;;;;;9.43;2.33;;;19.60;99.90;;;;;;5073150;28;20088;-73
2023/10/30 11:14:05;;;;;;;9.07;2.08;;;18.80;99.90;;;;;;5071690;28;20369;-76
2023/10/30 11:16:38;;;;;;;8.68;2.33;;;18.00;99.90;;;;;;5085216;28;20178;-73
2023/10/30 11:19:06;;;;;;;8.60;2.45;;;18.30;99.90;;;;;;5072614;28;20378;-72
2023/10/30 11:21:33;;;;;;;7.72;2.40;;;18.90;99.90;;;;;;5068933;28;20117;-73
2023/10/30 11:23:59;;;;;;;9.70;2.40;;;19.10;99.90;;;;;;5071068;28;20102;-73
2023/10/30 11:26:37;;;;;;;7.75;2.28;;;19.40;99.90;;;;;;5072028;28;20043;-73
2023/10/30 11:29:11;;;;;;;11.25;2.53;;;19.80;99.90;;;;;;5070839;28;20105;-76
2023/10/30 11:32:00;;;;;;;10.90;2.45;;;19.90;99.90;;;;;;5061014;28;20040;-73
2023/10/30 11:34:34;;;;;;;9.60;2.28;;;20.30;99.90;;;;;;5071436;28;20048;-75
2023/10/30 11:37:22;;;;;;;8.52;2.30;;;20.80;99.90;;;;;;5051695;28;20041;-75
2023/10/30 11:39:51;;;;;;;10.73;2.40;;;20.80;99.90;;;;;;5051710;28;20131;-72
2023/10/30 11:42:26;;;;;;;7.53;1.95;;;21.10;99.90;;;;;;5064863;28;20063;-72
2023/10/30 11:44:53;;;;;;;11.02;2.20;;;21.00;99.90;;;;;;5070735;28;20052;-71
2023/10/30 11:47:23;;;;;;;7.32;2.13;;;20.90;99.90;;;;;;5071481;28;20382;-73
2023/10/30 11:49:50;;;;;;;10.38;2.72;;;20.80;99.90;;;;;;5071132;28;20048;-73
2023/10/30 11:52:15;;;;;;;11.50;1.90;;;20.20;99.90;;;;;;5072753;28;20404;-70
2023/10/30 11:54:44;;;;;;;8.15;2.00;;;20.10;99.90;;;;;;5070611;28;20044;-73
2023/10/30 11:57:10;;;;;;;9.90;2.20;;;20.10;99.90;;;;;;5088318;28;20060;-71
2023/10/30 11:59:36;;;;;;;5.72;1.92;;;20.20;99.90;;;;;;5071099;28;20040;-71
2023/10/30 12:02:02;;;;;;;10.00;2.25;;;19.60;99.90;;;;;;5070327;28;20071;-71
2023/10/30 12:04:28;;;;;;;7.53;2.10;;;19.80;99.90;;;;;;5071346;28;20518;-71
2023/10/30 12:06:54;;;;;;;12.68;2.38;;;20.10;99.90;;;;;;5072428;28;20040;-72
2023/10/30 12:09:21;;;;;;;10.20;2.28;;;20.20;99.90;;;;;;5070861;28;20049;-71
2023/10/30 12:11:47;;;;;;;9.02;1.90;;;20.10;99.90;;;;;;5072077;28;20048;-71
2023/10/30 12:14:15;;;;;;;8.90;2.40;;;19.80;99.90;;;;;;5071583;28;20073;-71
2023/10/30 12:16:51;;;;;;;9.70;2.35;;;19.30;99.90;;;;;;5070516;28;20056;-71
2023/10/30 12:19:21;;;;;;;11.10;2.75;;;19.00;99.90;;;;;;5071607;28;20055;-72
2023/10/30 12:21:48;;;;;;;12.68;3.10;;;19.20;99.90;;;;;;5071242;28;20119;-71
2023/10/30 12:24:18;;;;;;;9.93;2.25;;;18.90;99.90;;;;;;5069263;28;20048;-71
2023/10/30 12:26:44;;;;;;;11.27;2.63;;;18.80;99.90;;;;;;5070684;28;20075;-72
2023/10/30 12:29:10;;;;;;;14.02;3.75;;;18.70;99.90;;;;;;5071646;28;20041;-71
2023/10/30 12:31:36;;;;;;;10.55;3.67;;;17.90;99.90;;;;;;5070236;28;20381;-72
2023/10/30 12:34:22;;;;;;;7.32;2.40;;;17.80;99.90;;;;;;5071074;28;20511;-71
2023/10/30 12:36:50;;;;;;;9.20;2.63;;;17.50;99.90;;;;;;5070111;28;20395;-73
2023/10/30 12:39:16;;;;;;;11.13;3.40;;;17.30;99.90;;;;;;5070899;28;20074;-71
2023/10/30 12:41:43;;;;;;;9.00;2.65;;;16.70;99.90;;;;;;5074878;28;20503;-72
2023/10/30 12:44:15;;;;;;;10.45;2.70;;;16.50;99.90;;;;;;5074288;28;20044;-71